sensor_id;sensor_type;location;lat;lon;timestamp;P1;durP1;ratioP1;P2;durP2;ratioP2
53281;SDS011;39167;52.794;6.892;2023-04-01T00:00:53;6.93;;;3.95;;
53281;SDS011;39167;52.794;6.892;2023-04-01T00:03:21;8.30;;;4.70;;
53281;SDS011;39167;52.794;6.892;2023-04-01T00:05:47;8.13;;;4.40;;
53281;SDS011;39167;52.794;6.892;2023-04-01T00:08:14;6.05;;;3.60;;
53281;SDS011;39167;52.794;6.892;2023-04-01T00:10:40;9.95;;;4.22;;
53281;SDS011;39167;52.794;6.892;2023-04-01T00:13:06;8.13;;;4.07;;
53281;SDS011;39167;52.794;6.892;2023-04-01T00:15:32;6.72;;;4.30;;
53281;SDS011;39167;52.794;6.892;2023-04-01T00:17:58;8.18;;;4.28;;
53281;SDS011;39167;52.794;6.892;2023-04-01T00:20:24;6.72;;;3.95;;
53281;SDS011;39167;52.794;6.892;2023-04-01T00:22:50;7.43;;;3.95;;
53281;SDS011;39167;52.794;6.892;2023-04-01T00:25:16;6.43;;;4.15;;
53281;SDS011;39167;52.794;6.892;2023-04-01T00:27:42;7.47;;;3.90;;
53281;SDS011;39167;52.794;6.892;2023-04-01T00:30:08;6.45;;;3.70;;
53281;SDS011;39167;52.794;6.892;2023-04-01T00:32:34;6.53;;;3.85;;
53281;SDS011;39167;52.794;6.892;2023-04-01T00:35:01;6.82;;;4.00;;
53281;SDS011;39167;52.794;6.892;2023-04-01T00:37:27;7.82;;;3.92;;
53281;SDS011;39167;52.794;6.892;2023-04-01T00:39:54;7.70;;;3.55;;
53281;SDS011;39167;52.794;6.892;2023-04-01T00:42:20;7.22;;;3.85;;
53281;SDS011;39167;52.794;6.892;2023-04-01T00:44:52;5.40;;;3.47;;
53281;SDS011;39167;52.794;6.892;2023-04-01T00:47:20;6.97;;;3.60;;
53281;SDS011;39167;52.794;6.892;2023-04-01T00:49:48;7.13;;;3.70;;
53281;SDS011;39167;52.794;6.892;2023-04-01T00:52:20;9.32;;;4.00;;
53281;SDS011;39167;52.794;6.892;2023-04-01T00:54:50;6.40;;;3.88;;
53281;SDS011;39167;52.794;6.892;2023-04-01T00:57:20;6.88;;;3.65;;
53281;SDS011;39167;52.794;6.892;2023-04-01T00:59:54;7.13;;;3.20;;
53281;SDS011;39167;52.794;6.892;2023-04-01T01:02:21;7.43;;;3.75;;
53281;SDS011;39167;52.794;6.892;2023-04-01T01:04:47;6.97;;;3.33;;
53281;SDS011;39167;52.794;6.892;2023-04-01T01:15:26;5.80;;;3.35;;
53281;SDS011;39167;52.794;6.892;2023-04-01T01:17:59;4.35;;;2.67;;
53281;SDS011;39167;52.794;6.892;2023-04-01T01:26:47;7.47;;;3.00;;
53281;SDS011;39167;52.794;6.892;2023-04-01T01:32:12;4.40;;;2.88;;
53281;SDS011;39167;52.794;6.892;2023-04-01T01:37:17;5.35;;;2.90;;
53281;SDS011;39167;52.794;6.892;2023-04-01T01:39:47;6.03;;;3.05;;
53281;SDS011;39167;52.794;6.892;2023-04-01T01:42:15;4.85;;;3.13;;
53281;SDS011;39167;52.794;6.892;2023-04-01T01:44:44;6.03;;;2.85;;
53281;SDS011;39167;52.794;6.892;2023-04-01T01:47:12;4.88;;;2.85;;
53281;SDS011;39167;52.794;6.892;2023-04-01T01:49:39;7.22;;;3.40;;
53281;SDS011;39167;52.794;6.892;2023-04-01T01:52:08;5.85;;;3.00;;
53281;SDS011;39167;52.794;6.892;2023-04-01T01:54:34;5.05;;;3.10;;
53281;SDS011;39167;52.794;6.892;2023-04-01T01:57:06;6.25;;;3.47;;
53281;SDS011;39167;52.794;6.892;2023-04-01T01:59:35;7.93;;;3.75;;
53281;SDS011;39167;52.794;6.892;2023-04-01T02:02:03;8.40;;;3.97;;
53281;SDS011;39167;52.794;6.892;2023-04-01T02:04:36;10.57;;;3.65;;
53281;SDS011;39167;52.794;6.892;2023-04-01T02:09:32;8.57;;;3.50;;
53281;SDS011;39167;52.794;6.892;2023-04-01T02:12:00;8.55;;;3.53;;
53281;SDS011;39167;52.794;6.892;2023-04-01T02:17:21;8.15;;;4.10;;
53281;SDS011;39167;52.794;6.892;2023-04-01T02:22:24;7.07;;;4.07;;
53281;SDS011;39167;52.794;6.892;2023-04-01T02:24:54;6.07;;;3.80;;
53281;SDS011;39167;52.794;6.892;2023-04-01T02:27:24;6.53;;;3.97;;
53281;SDS011;39167;52.794;6.892;2023-04-01T02:29:50;8.98;;;4.00;;
53281;SDS011;39167;52.794;6.892;2023-04-01T02:32:18;7.15;;;4.35;;
53281;SDS011;39167;52.794;6.892;2023-04-01T02:34:46;8.93;;;4.15;;
53281;SDS011;39167;52.794;6.892;2023-04-01T02:37:12;9.73;;;4.30;;
53281;SDS011;39167;52.794;6.892;2023-04-01T02:39:39;6.43;;;3.75;;
53281;SDS011;39167;52.794;6.892;2023-04-01T02:42:05;7.18;;;3.92;;
53281;SDS011;39167;52.794;6.892;2023-04-01T02:44:31;8.27;;;3.78;;
53281;SDS011;39167;52.794;6.892;2023-04-01T02:46:57;8.18;;;4.13;;
53281;SDS011;39167;52.794;6.892;2023-04-01T02:49:23;7.30;;;4.30;;
53281;SDS011;39167;52.794;6.892;2023-04-01T02:51:48;6.35;;;4.55;;
53281;SDS011;39167;52.794;6.892;2023-04-01T02:54:14;7.03;;;3.97;;
53281;SDS011;39167;52.794;6.892;2023-04-01T02:56:40;8.30;;;4.22;;
53281;SDS011;39167;52.794;6.892;2023-04-01T02:59:05;6.78;;;3.97;;
53281;SDS011;39167;52.794;6.892;2023-04-01T03:01:31;9.80;;;4.70;;
53281;SDS011;39167;52.794;6.892;2023-04-01T03:03:57;9.10;;;4.47;;
53281;SDS011;39167;52.794;6.892;2023-04-01T03:06:22;6.90;;;4.00;;
53281;SDS011;39167;52.794;6.892;2023-04-01T03:08:48;8.65;;;4.72;;
53281;SDS011;39167;52.794;6.892;2023-04-01T03:11:14;7.35;;;4.85;;
53281;SDS011;39167;52.794;6.892;2023-04-01T03:13:40;8.40;;;4.70;;
53281;SDS011;39167;52.794;6.892;2023-04-01T03:16:06;8.57;;;4.38;;
53281;SDS011;39167;52.794;6.892;2023-04-01T03:18:32;7.47;;;4.85;;
53281;SDS011;39167;52.794;6.892;2023-04-01T03:21:11;11.98;;;7.47;;
53281;SDS011;39167;52.794;6.892;2023-04-01T03:23:42;17.02;;;10.95;;
53281;SDS011;39167;52.794;6.892;2023-04-01T03:26:08;20.88;;;12.00;;
53281;SDS011;39167;52.794;6.892;2023-04-01T03:28:33;23.45;;;13.40;;
53281;SDS011;39167;52.794;6.892;2023-04-01T03:30:59;23.40;;;13.63;;
53281;SDS011;39167;52.794;6.892;2023-04-01T03:33:25;18.38;;;11.70;;
53281;SDS011;39167;52.794;6.892;2023-04-01T03:35:50;16.90;;;10.18;;
53281;SDS011;39167;52.794;6.892;2023-04-01T03:38:17;12.68;;;8.15;;
53281;SDS011;39167;52.794;6.892;2023-04-01T03:40:43;12.38;;;7.20;;
53281;SDS011;39167;52.794;6.892;2023-04-01T03:43:09;10.48;;;6.32;;
53281;SDS011;39167;52.794;6.892;2023-04-01T03:45:36;10.18;;;5.95;;
53281;SDS011;39167;52.794;6.892;2023-04-01T03:48:08;10.82;;;7.35;;
53281;SDS011;39167;52.794;6.892;2023-04-01T03:50:34;12.80;;;6.90;;
53281;SDS011;39167;52.794;6.892;2023-04-01T03:53:00;9.13;;;5.13;;
53281;SDS011;39167;52.794;6.892;2023-04-01T03:55:25;9.27;;;4.75;;
53281;SDS011;39167;52.794;6.892;2023-04-01T03:57:51;6.45;;;3.88;;
53281;SDS011;39167;52.794;6.892;2023-04-01T04:00:17;7.13;;;4.53;;
53281;SDS011;39167;52.794;6.892;2023-04-01T04:02:43;8.27;;;4.38;;
53281;SDS011;39167;52.794;6.892;2023-04-01T04:05:09;5.68;;;3.92;;
53281;SDS011;39167;52.794;6.892;2023-04-01T04:07:35;7.60;;;4.13;;
53281;SDS011;39167;52.794;6.892;2023-04-01T04:10:01;9.60;;;4.60;;
53281;SDS011;39167;52.794;6.892;2023-04-01T04:12:28;9.15;;;5.25;;
53281;SDS011;39167;52.794;6.892;2023-04-01T04:14:53;10.02;;;5.35;;
53281;SDS011;39167;52.794;6.892;2023-04-01T04:17:19;8.85;;;5.18;;
53281;SDS011;39167;52.794;6.892;2023-04-01T04:19:45;10.10;;;5.80;;
53281;SDS011;39167;52.794;6.892;2023-04-01T04:22:10;9.20;;;5.72;;
53281;SDS011;39167;52.794;6.892;2023-04-01T04:24:36;7.78;;;5.32;;
53281;SDS011;39167;52.794;6.892;2023-04-01T04:27:03;9.73;;;5.47;;
53281;SDS011;39167;52.794;6.892;2023-04-01T04:29:29;7.45;;;5.03;;
53281;SDS011;39167;52.794;6.892;2023-04-01T04:31:55;7.93;;;5.00;;
53281;SDS011;39167;52.794;6.892;2023-04-01T04:34:21;8.43;;;5.20;;
53281;SDS011;39167;52.794;6.892;2023-04-01T04:36:47;8.57;;;5.00;;
53281;SDS011;39167;52.794;6.892;2023-04-01T04:39:13;8.75;;;5.05;;
53281;SDS011;39167;52.794;6.892;2023-04-01T04:41:40;8.20;;;4.63;;
53281;SDS011;39167;52.794;6.892;2023-04-01T04:44:06;8.52;;;5.25;;
53281;SDS011;39167;52.794;6.892;2023-04-01T04:46:32;10.27;;;5.47;;
53281;SDS011;39167;52.794;6.892;2023-04-01T04:48:58;7.00;;;4.72;;
53281;SDS011;39167;52.794;6.892;2023-04-01T04:51:23;7.43;;;4.85;;
53281;SDS011;39167;52.794;6.892;2023-04-01T04:53:49;7.93;;;5.10;;
53281;SDS011;39167;52.794;6.892;2023-04-01T04:56:19;8.23;;;5.57;;
53281;SDS011;39167;52.794;6.892;2023-04-01T04:58:45;8.23;;;5.45;;
53281;SDS011;39167;52.794;6.892;2023-04-01T05:01:12;9.20;;;5.53;;
53281;SDS011;39167;52.794;6.892;2023-04-01T05:03:40;8.70;;;5.75;;
53281;SDS011;39167;52.794;6.892;2023-04-01T05:06:07;9.50;;;5.88;;
53281;SDS011;39167;52.794;6.892;2023-04-01T05:08:34;9.43;;;6.55;;
53281;SDS011;39167;52.794;6.892;2023-04-01T05:11:00;10.70;;;6.68;;
53281;SDS011;39167;52.794;6.892;2023-04-01T05:13:27;11.38;;;7.50;;
53281;SDS011;39167;52.794;6.892;2023-04-01T05:15:53;10.90;;;7.43;;
53281;SDS011;39167;52.794;6.892;2023-04-01T05:18:19;10.65;;;7.40;;
53281;SDS011;39167;52.794;6.892;2023-04-01T05:20:49;14.20;;;9.13;;
53281;SDS011;39167;52.794;6.892;2023-04-01T05:23:19;12.90;;;8.68;;
53281;SDS011;39167;52.794;6.892;2023-04-01T05:25:47;14.68;;;9.30;;
53281;SDS011;39167;52.794;6.892;2023-04-01T05:28:13;15.20;;;10.07;;
53281;SDS011;39167;52.794;6.892;2023-04-01T05:30:42;18.40;;;10.75;;
53281;SDS011;39167;52.794;6.892;2023-04-01T05:33:09;17.05;;;11.05;;
53281;SDS011;39167;52.794;6.892;2023-04-01T05:35:36;17.20;;;11.75;;
53281;SDS011;39167;52.794;6.892;2023-04-01T05:38:02;17.42;;;11.55;;
53281;SDS011;39167;52.794;6.892;2023-04-01T05:40:29;15.70;;;10.85;;
53281;SDS011;39167;52.794;6.892;2023-04-01T05:42:55;18.73;;;11.35;;
53281;SDS011;39167;52.794;6.892;2023-04-01T05:45:21;15.20;;;10.25;;
53281;SDS011;39167;52.794;6.892;2023-04-01T05:47:47;16.15;;;10.77;;
53281;SDS011;39167;52.794;6.892;2023-04-01T05:50:13;14.10;;;9.80;;
53281;SDS011;39167;52.794;6.892;2023-04-01T05:52:39;15.18;;;10.15;;
53281;SDS011;39167;52.794;6.892;2023-04-01T05:55:04;15.05;;;9.35;;
53281;SDS011;39167;52.794;6.892;2023-04-01T05:57:31;14.20;;;9.80;;
53281;SDS011;39167;52.794;6.892;2023-04-01T05:59:56;14.82;;;9.90;;
53281;SDS011;39167;52.794;6.892;2023-04-01T06:02:22;15.10;;;10.07;;
53281;SDS011;39167;52.794;6.892;2023-04-01T06:04:48;14.65;;;9.60;;
53281;SDS011;39167;52.794;6.892;2023-04-01T06:07:18;16.65;;;11.25;;
53281;SDS011;39167;52.794;6.892;2023-04-01T06:09:44;15.40;;;10.65;;
53281;SDS011;39167;52.794;6.892;2023-04-01T06:12:17;17.02;;;11.18;;
53281;SDS011;39167;52.794;6.892;2023-04-01T06:28:43;15.43;;;10.30;;
53281;SDS011;39167;52.794;6.892;2023-04-01T06:34:26;16.25;;;9.98;;
53281;SDS011;39167;52.794;6.892;2023-04-01T06:42:24;14.48;;;10.25;;
53281;SDS011;39167;52.794;6.892;2023-04-01T06:50:58;15.27;;;8.93;;
53281;SDS011;39167;52.794;6.892;2023-04-01T06:53:52;16.55;;;9.90;;
53281;SDS011;39167;52.794;6.892;2023-04-01T06:56:26;16.95;;;9.55;;
53281;SDS011;39167;52.794;6.892;2023-04-01T06:59:08;13.82;;;9.43;;
53281;SDS011;39167;52.794;6.892;2023-04-01T07:01:42;14.43;;;9.10;;
53281;SDS011;39167;52.794;6.892;2023-04-01T07:04:16;15.50;;;9.23;;
53281;SDS011;39167;52.794;6.892;2023-04-01T07:09:22;13.23;;;8.43;;
53281;SDS011;39167;52.794;6.892;2023-04-01T07:11:52;12.50;;;7.97;;
53281;SDS011;39167;52.794;6.892;2023-04-01T07:19:39;10.63;;;7.07;;
53281;SDS011;39167;52.794;6.892;2023-04-01T07:22:31;10.88;;;7.45;;
53281;SDS011;39167;52.794;6.892;2023-04-01T07:27:46;11.02;;;7.43;;
53281;SDS011;39167;52.794;6.892;2023-04-01T07:30:19;12.88;;;7.50;;
53281;SDS011;39167;52.794;6.892;2023-04-01T07:35:42;10.05;;;6.30;;
53281;SDS011;39167;52.794;6.892;2023-04-01T07:38:38;10.55;;;7.07;;
53281;SDS011;39167;52.794;6.892;2023-04-01T07:41:13;11.45;;;7.28;;
53281;SDS011;39167;52.794;6.892;2023-04-01T07:43:44;12.00;;;7.15;;
53281;SDS011;39167;52.794;6.892;2023-04-01T07:46:26;14.90;;;7.88;;
53281;SDS011;39167;52.794;6.892;2023-04-01T07:54:39;10.65;;;6.78;;
53281;SDS011;39167;52.794;6.892;2023-04-01T07:59:58;11.52;;;6.57;;
53281;SDS011;39167;52.794;6.892;2023-04-01T08:07:57;8.63;;;4.97;;
53281;SDS011;39167;52.794;6.892;2023-04-01T08:10:49;7.10;;;4.43;;
53281;SDS011;39167;52.794;6.892;2023-04-01T08:13:26;6.68;;;4.22;;
53281;SDS011;39167;52.794;6.892;2023-04-01T08:19:31;8.40;;;3.88;;
53281;SDS011;39167;52.794;6.892;2023-04-01T08:22:27;7.32;;;4.40;;
53281;SDS011;39167;52.794;6.892;2023-04-01T08:24:59;6.53;;;3.80;;
53281;SDS011;39167;52.794;6.892;2023-04-01T08:27:39;6.72;;;3.30;;
53281;SDS011;39167;52.794;6.892;2023-04-01T08:33:02;6.25;;;3.45;;
53281;SDS011;39167;52.794;6.892;2023-04-01T08:38:12;4.85;;;2.70;;
53281;SDS011;39167;52.794;6.892;2023-04-01T08:40:55;5.60;;;3.03;;
53281;SDS011;39167;52.794;6.892;2023-04-01T08:43:51;4.32;;;2.47;;
53281;SDS011;39167;52.794;6.892;2023-04-01T08:51:54;3.85;;;1.80;;
53281;SDS011;39167;52.794;6.892;2023-04-01T08:54:36;3.45;;;1.98;;
53281;SDS011;39167;52.794;6.892;2023-04-01T09:00:31;3.72;;;2.08;;
53281;SDS011;39167;52.794;6.892;2023-04-01T09:20:03;7.82;;;3.92;;
53281;SDS011;39167;52.794;6.892;2023-04-01T09:30:54;8.88;;;4.97;;
53281;SDS011;39167;52.794;6.892;2023-04-01T09:36:52;7.07;;;4.47;;
53281;SDS011;39167;52.794;6.892;2023-04-01T09:39:37;8.50;;;5.20;;
53281;SDS011;39167;52.794;6.892;2023-04-01T09:42:21;8.15;;;5.13;;
53281;SDS011;39167;52.794;6.892;2023-04-01T09:50:57;8.68;;;5.10;;
53281;SDS011;39167;52.794;6.892;2023-04-01T09:59:08;7.25;;;4.47;;
53281;SDS011;39167;52.794;6.892;2023-04-01T10:13:06;7.03;;;4.45;;
53281;SDS011;39167;52.794;6.892;2023-04-01T10:15:59;7.47;;;5.10;;
53281;SDS011;39167;52.794;6.892;2023-04-01T10:27:16;7.47;;;4.78;;
53281;SDS011;39167;52.794;6.892;2023-04-01T10:30:16;7.22;;;4.45;;
53281;SDS011;39167;52.794;6.892;2023-04-01T10:39:08;7.72;;;4.55;;
53281;SDS011;39167;52.794;6.892;2023-04-01T10:42:31;7.63;;;5.22;;
53281;SDS011;39167;52.794;6.892;2023-04-01T10:53:33;6.97;;;4.97;;
53281;SDS011;39167;52.794;6.892;2023-04-01T11:19:29;11.75;;;7.28;;
53281;SDS011;39167;52.794;6.892;2023-04-01T11:38:57;6.43;;;4.22;;
53281;SDS011;39167;52.794;6.892;2023-04-01T11:41:30;6.47;;;4.70;;
53281;SDS011;39167;52.794;6.892;2023-04-01T11:44:17;7.28;;;4.40;;
53281;SDS011;39167;52.794;6.892;2023-04-01T11:46:56;6.15;;;4.20;;
53281;SDS011;39167;52.794;6.892;2023-04-01T11:49:44;5.45;;;3.80;;
53281;SDS011;39167;52.794;6.892;2023-04-01T11:55:23;5.30;;;3.75;;
53281;SDS011;39167;52.794;6.892;2023-04-01T12:03:10;6.38;;;3.47;;
53281;SDS011;39167;52.794;6.892;2023-04-01T12:05:52;4.35;;;3.08;;
53281;SDS011;39167;52.794;6.892;2023-04-01T12:22:28;5.10;;;2.88;;
53281;SDS011;39167;52.794;6.892;2023-04-01T12:31:00;3.80;;;2.72;;
53281;SDS011;39167;52.794;6.892;2023-04-01T12:33:52;5.03;;;2.97;;
53281;SDS011;39167;52.794;6.892;2023-04-01T12:36:45;4.70;;;3.15;;
53281;SDS011;39167;52.794;6.892;2023-04-01T12:56:14;4.10;;;2.78;;
53281;SDS011;39167;52.794;6.892;2023-04-01T13:04:08;4.28;;;2.97;;
53281;SDS011;39167;52.794;6.892;2023-04-01T13:09:38;4.65;;;3.15;;
53281;SDS011;39167;52.794;6.892;2023-04-01T13:15:20;5.53;;;3.50;;
53281;SDS011;39167;52.794;6.892;2023-04-01T13:23:32;4.32;;;3.10;;
53281;SDS011;39167;52.794;6.892;2023-04-01T13:42:53;4.40;;;3.20;;
53281;SDS011;39167;52.794;6.892;2023-04-01T13:51:45;5.50;;;3.45;;
53281;SDS011;39167;52.794;6.892;2023-04-01T14:05:59;4.10;;;2.97;;
53281;SDS011;39167;52.794;6.892;2023-04-01T14:30:47;8.77;;;5.53;;
53281;SDS011;39167;52.794;6.892;2023-04-01T14:39:21;8.45;;;5.32;;
53281;SDS011;39167;52.794;6.892;2023-04-01T14:44:46;8.00;;;5.50;;
53281;SDS011;39167;52.794;6.892;2023-04-01T14:47:38;7.28;;;4.68;;
53281;SDS011;39167;52.794;6.892;2023-04-01T14:50:28;6.95;;;4.50;;
53281;SDS011;39167;52.794;6.892;2023-04-01T14:52:57;6.15;;;5.40;;
53281;SDS011;39167;52.794;6.892;2023-04-01T14:55:44;6.00;;;5.05;;
53281;SDS011;39167;52.794;6.892;2023-04-01T14:58:15;6.78;;;5.13;;
53281;SDS011;39167;52.794;6.892;2023-04-01T15:09:14;7.55;;;4.32;;
53281;SDS011;39167;52.794;6.892;2023-04-01T15:12:01;4.72;;;4.00;;
53281;SDS011;39167;52.794;6.892;2023-04-01T15:20:08;6.05;;;3.85;;
53281;SDS011;39167;52.794;6.892;2023-04-01T15:28:25;5.20;;;4.35;;
53281;SDS011;39167;52.794;6.892;2023-04-01T15:36:34;4.82;;;3.70;;
53281;SDS011;39167;52.794;6.892;2023-04-01T15:39:18;3.92;;;3.20;;
53281;SDS011;39167;52.794;6.892;2023-04-01T15:41:58;4.82;;;3.55;;
53281;SDS011;39167;52.794;6.892;2023-04-01T15:46:56;4.57;;;3.35;;
53281;SDS011;39167;52.794;6.892;2023-04-01T15:49:42;4.22;;;3.25;;
53281;SDS011;39167;52.794;6.892;2023-04-01T16:00:30;3.88;;;3.47;;
53281;SDS011;39167;52.794;6.892;2023-04-01T16:08:45;3.47;;;2.65;;
53281;SDS011;39167;52.794;6.892;2023-04-01T16:11:40;4.03;;;3.00;;
53281;SDS011;39167;52.794;6.892;2023-04-01T16:30:40;3.05;;;2.28;;
53281;SDS011;39167;52.794;6.892;2023-04-01T16:36:13;4.05;;;2.65;;
53281;SDS011;39167;52.794;6.892;2023-04-01T16:47:30;3.58;;;2.45;;
53281;SDS011;39167;52.794;6.892;2023-04-01T16:52:57;5.20;;;2.75;;
53281;SDS011;39167;52.794;6.892;2023-04-01T16:55:34;4.38;;;2.83;;
53281;SDS011;39167;52.794;6.892;2023-04-01T16:58:00;3.92;;;2.95;;
53281;SDS011;39167;52.794;6.892;2023-04-01T17:00:49;6.03;;;3.30;;
53281;SDS011;39167;52.794;6.892;2023-04-01T17:03:20;6.32;;;3.55;;
53281;SDS011;39167;52.794;6.892;2023-04-01T17:11:27;5.20;;;4.25;;
53281;SDS011;39167;52.794;6.892;2023-04-01T17:14:28;5.45;;;4.32;;
53281;SDS011;39167;52.794;6.892;2023-04-01T17:17:14;5.28;;;4.10;;
53281;SDS011;39167;52.794;6.892;2023-04-01T17:20:01;6.47;;;5.15;;
53281;SDS011;39167;52.794;6.892;2023-04-01T17:44:55;6.45;;;4.47;;
53281;SDS011;39167;52.794;6.892;2023-04-01T17:49:51;6.45;;;4.40;;
53281;SDS011;39167;52.794;6.892;2023-04-01T17:55:06;7.65;;;5.55;;
53281;SDS011;39167;52.794;6.892;2023-04-01T17:57:45;8.07;;;5.13;;
53281;SDS011;39167;52.794;6.892;2023-04-01T18:14:18;7.63;;;5.63;;
53281;SDS011;39167;52.794;6.892;2023-04-01T18:17:23;7.33;;;5.43;;
53281;SDS011;39167;52.794;6.892;2023-04-01T18:25:42;8.07;;;5.65;;
53281;SDS011;39167;52.794;6.892;2023-04-01T18:34:08;7.38;;;5.80;;
53281;SDS011;39167;52.794;6.892;2023-04-01T18:36:35;9.75;;;5.57;;
53281;SDS011;39167;52.794;6.892;2023-04-01T18:39:16;9.13;;;6.95;;
53281;SDS011;39167;52.794;6.892;2023-04-01T18:44:46;9.07;;;6.55;;
53281;SDS011;39167;52.794;6.892;2023-04-01T18:50:27;10.00;;;6.65;;
53281;SDS011;39167;52.794;6.892;2023-04-01T18:56:09;8.48;;;6.60;;
53281;SDS011;39167;52.794;6.892;2023-04-01T19:04:33;12.23;;;7.50;;
53281;SDS011;39167;52.794;6.892;2023-04-01T19:10:21;10.38;;;8.07;;
53281;SDS011;39167;52.794;6.892;2023-04-01T19:18:55;9.40;;;7.45;;
53281;SDS011;39167;52.794;6.892;2023-04-01T19:21:40;9.40;;;7.47;;
53281;SDS011;39167;52.794;6.892;2023-04-01T19:27:07;10.98;;;7.65;;
53281;SDS011;39167;52.794;6.892;2023-04-01T19:32:49;10.05;;;7.30;;
53281;SDS011;39167;52.794;6.892;2023-04-01T19:35:41;10.02;;;7.05;;
53281;SDS011;39167;52.794;6.892;2023-04-01T19:48:52;9.88;;;7.35;;
53281;SDS011;39167;52.794;6.892;2023-04-01T19:59:51;9.18;;;7.43;;
53281;SDS011;39167;52.794;6.892;2023-04-01T20:05:21;9.68;;;6.78;;
53281;SDS011;39167;52.794;6.892;2023-04-01T20:08:00;10.55;;;6.78;;
53281;SDS011;39167;52.794;6.892;2023-04-01T20:10:57;9.85;;;7.18;;
53281;SDS011;39167;52.794;6.892;2023-04-01T20:16:54;11.80;;;6.63;;
53281;SDS011;39167;52.794;6.892;2023-04-01T20:25:14;9.95;;;6.55;;
53281;SDS011;39167;52.794;6.892;2023-04-01T20:28:05;8.98;;;6.50;;
53281;SDS011;39167;52.794;6.892;2023-04-01T20:31:01;12.85;;;7.00;;
53281;SDS011;39167;52.794;6.892;2023-04-01T20:36:06;9.07;;;6.35;;
53281;SDS011;39167;52.794;6.892;2023-04-01T20:49:23;17.33;;;7.80;;
53281;SDS011;39167;52.794;6.892;2023-04-01T21:06:10;12.23;;;8.20;;
53281;SDS011;39167;52.794;6.892;2023-04-01T21:08:51;12.63;;;7.95;;
53281;SDS011;39167;52.794;6.892;2023-04-01T21:23:16;16.00;;;9.43;;
53281;SDS011;39167;52.794;6.892;2023-04-01T21:30:59;14.35;;;9.10;;
53281;SDS011;39167;52.794;6.892;2023-04-01T21:47:44;12.88;;;8.18;;
53281;SDS011;39167;52.794;6.892;2023-04-01T22:07:29;13.90;;;8.13;;
53281;SDS011;39167;52.794;6.892;2023-04-01T22:10:30;10.85;;;7.45;;
53281;SDS011;39167;52.794;6.892;2023-04-01T22:13:07;14.00;;;7.93;;
53281;SDS011;39167;52.794;6.892;2023-04-01T22:21:22;11.07;;;7.03;;
53281;SDS011;39167;52.794;6.892;2023-04-01T22:24:13;14.38;;;8.55;;
53281;SDS011;39167;52.794;6.892;2023-04-01T22:26:46;13.60;;;6.78;;
53281;SDS011;39167;52.794;6.892;2023-04-01T22:29:24;12.93;;;7.10;;
53281;SDS011;39167;52.794;6.892;2023-04-01T22:32:16;12.07;;;7.07;;
53281;SDS011;39167;52.794;6.892;2023-04-01T22:34:53;14.00;;;7.20;;
53281;SDS011;39167;52.794;6.892;2023-04-01T22:37:37;11.85;;;7.03;;
53281;SDS011;39167;52.794;6.892;2023-04-01T22:40:25;14.50;;;7.30;;
53281;SDS011;39167;52.794;6.892;2023-04-01T22:43:00;15.30;;;7.80;;
53281;SDS011;39167;52.794;6.892;2023-04-01T22:48:10;13.60;;;8.07;;
53281;SDS011;39167;52.794;6.892;2023-04-01T22:58:34;14.02;;;7.47;;
53281;SDS011;39167;52.794;6.892;2023-04-01T23:01:07;12.30;;;7.55;;
53281;SDS011;39167;52.794;6.892;2023-04-01T23:03:43;15.95;;;8.32;;
53281;SDS011;39167;52.794;6.892;2023-04-01T23:06:15;15.55;;;7.13;;
53281;SDS011;39167;52.794;6.892;2023-04-01T23:11:35;12.80;;;7.45;;
53281;SDS011;39167;52.794;6.892;2023-04-01T23:16:48;13.90;;;7.57;;
53281;SDS011;39167;52.794;6.892;2023-04-01T23:19:25;12.18;;;6.78;;
53281;SDS011;39167;52.794;6.892;2023-04-01T23:22:12;13.43;;;7.53;;
53281;SDS011;39167;52.794;6.892;2023-04-01T23:24:44;12.13;;;6.80;;
53281;SDS011;39167;52.794;6.892;2023-04-01T23:27:23;14.13;;;7.35;;
53281;SDS011;39167;52.794;6.892;2023-04-01T23:33:14;10.70;;;6.47;;
53281;SDS011;39167;52.794;6.892;2023-04-01T23:35:54;10.52;;;6.50;;
53281;SDS011;39167;52.794;6.892;2023-04-01T23:38:38;12.18;;;6.70;;
53281;SDS011;39167;52.794;6.892;2023-04-01T23:41:18;13.40;;;6.40;;
53281;SDS011;39167;52.794;6.892;2023-04-01T23:43:56;12.15;;;6.72;;
53281;SDS011;39167;52.794;6.892;2023-04-01T23:46:26;11.32;;;5.68;;
53281;SDS011;39167;52.794;6.892;2023-04-01T23:48:54;10.32;;;6.15;;
53281;SDS011;39167;52.794;6.892;2023-04-01T23:51:21;11.77;;;6.65;;
53281;SDS011;39167;52.794;6.892;2023-04-01T23:54:01;12.82;;;5.45;;
53281;SDS011;39167;52.794;6.892;2023-04-01T23:56:33;14.23;;;6.40;;
53281;SDS011;39167;52.794;6.892;2023-04-01T23:59:03;9.10;;;5.60;;
